createdAt,value
2019-02-17T07:09:55.057Z,102043.86
2019-02-17T07:12:24.972Z,102042.22
2019-02-17T07:14:58.603Z,102040.63
2019-02-17T07:17:29.692Z,102036.90
2019-02-17T07:19:59.111Z,102035.08
2019-02-17T07:22:28.533Z,102026.19
2019-02-17T07:25:00.675Z,102030.13
2019-02-17T07:27:34.778Z,102024.90
2019-02-17T07:30:06.535Z,102029.14
2019-02-17T07:32:35.963Z,102026.43
2019-02-17T07:35:06.884Z,102022.65
2019-02-17T07:37:36.324Z,102017.53
2019-02-17T07:40:07.568Z,102020.09
2019-02-17T07:42:37.016Z,102020.95
2019-02-17T07:45:10.503Z,102024.54
2019-02-17T07:47:40.144Z,102022.59
2019-02-17T07:50:11.136Z,102016.91
2019-02-17T07:52:40.624Z,102019.86
2019-02-17T07:55:11.613Z,102028.08
2019-02-17T07:57:41.042Z,102030.52
2019-02-17T08:00:14.021Z,102023.50
2019-02-17T08:02:43.524Z,102024.70
2019-02-17T08:05:12.938Z,102023.29
2019-02-17T08:07:42.406Z,102020.55
2019-02-17T08:10:12.060Z,102018.48
2019-02-17T08:12:41.512Z,102008.91
2019-02-17T08:15:12.058Z,102006.80
2019-02-17T08:17:41.557Z,102009.07
2019-02-17T08:20:11.943Z,102012.09
2019-02-17T08:22:41.353Z,102000.84
2019-02-17T08:25:19.369Z,101996.28
2019-02-17T08:27:42.113Z,101999.45
2019-02-17T08:30:14.129Z,101992.41
2019-02-17T08:32:44.213Z,101994.42
2019-02-17T08:35:16.205Z,101986.55
2019-02-17T08:37:45.692Z,101984.52
2019-02-17T08:40:15.248Z,101987.31
2019-02-17T08:42:44.678Z,101976.20
2019-02-17T08:45:15.321Z,101982.73
2019-02-17T08:47:48.006Z,101984.23
2019-02-17T08:50:20.019Z,101986.59
2019-02-17T08:52:50.944Z,101983.20
2019-02-17T08:55:20.815Z,101981.52
2019-02-17T08:57:53.216Z,101980.53
2019-02-17T09:00:24.449Z,101972.03
2019-02-17T09:02:55.418Z,101963.45
2019-02-17T09:05:24.870Z,101960.34
2019-02-17T09:07:55.861Z,101962.55
2019-02-17T09:10:25.285Z,101963.95
2019-02-17T09:12:55.115Z,101949.77
2019-02-17T09:15:24.521Z,101956.50
2019-02-17T09:17:53.959Z,101964.04
2019-02-17T09:20:26.707Z,101952.28
2019-02-17T09:22:56.142Z,101952.34
2019-02-17T09:25:25.637Z,101951.47
2019-02-17T09:27:55.091Z,101950.57
2019-02-17T09:30:24.594Z,101954.61
2019-02-17T09:32:54.058Z,101950.01
2019-02-17T09:35:23.520Z,101949.34
2019-02-17T09:37:52.944Z,101953.31
2019-02-17T09:40:22.402Z,101953.88
2019-02-17T09:42:51.826Z,101946.27
2019-02-17T09:45:21.339Z,101935.48
2019-02-17T09:47:50.779Z,101938.33
2019-02-17T09:50:20.236Z,101938.41
2019-02-17T09:52:49.721Z,101930.55
2019-02-17T09:55:19.309Z,101932.05
2019-02-17T09:57:48.749Z,101925.72
2019-02-17T10:00:18.250Z,101932.17
2019-02-17T10:02:48.014Z,101929.78
2019-02-17T10:05:17.546Z,101925.48
2019-02-17T10:07:47.052Z,101931.69
2019-02-17T10:10:20.276Z,101922.68
2019-02-17T10:12:49.676Z,101918.39
2019-02-17T10:15:19.190Z,101907.56
2019-02-17T10:17:48.688Z,101915.66
2019-02-17T10:20:18.117Z,101905.59
2019-02-17T10:22:47.679Z,101911.34
2019-02-17T10:25:17.123Z,101905.81
2019-02-17T10:27:46.734Z,101903.52
2019-02-17T10:30:17.848Z,101904.78
2019-02-17T10:32:47.572Z,101899.25
2019-02-17T10:35:17.384Z,101900.46
2019-02-17T10:37:47.642Z,101901.29
2019-02-17T10:40:20.007Z,101907.22
2019-02-17T10:42:50.743Z,101911.06
2019-02-17T10:45:22.256Z,101911.48
2019-02-17T10:47:53.088Z,101909.59
2019-02-17T10:50:24.336Z,101902.66
2019-02-17T10:52:55.531Z,101897.60
2019-02-17T10:55:25.438Z,101902.19
2019-02-17T10:57:55.430Z,101900.86
2019-02-17T11:00:25.622Z,101898.77
2019-02-17T11:02:55.660Z,101898.05
2019-02-17T11:05:25.172Z,101895.08
2019-02-17T11:07:54.956Z,101893.59
2019-02-17T11:10:24.585Z,101887.20
2019-02-17T11:12:55.178Z,101874.30
2019-02-17T11:15:24.656Z,101887.21
2019-02-17T11:17:54.066Z,101884.75
2019-02-17T11:20:23.497Z,101876.27
2019-02-17T11:22:53.055Z,101879.30
2019-02-17T11:25:23.112Z,101876.90
2019-02-17T11:27:52.671Z,101870.48
2019-02-17T11:30:22.667Z,101869.02
2019-02-17T11:32:57.971Z,101861.97
2019-02-17T11:35:23.505Z,101858.03
2019-02-17T11:37:52.934Z,101850.02
2019-02-17T11:40:22.396Z,101847.31
2019-02-17T11:42:51.840Z,101848.23
2019-02-17T11:45:21.736Z,101835.18
2019-02-17T11:47:51.241Z,101827.05
2019-02-17T11:50:20.723Z,101837.95
2019-02-17T11:52:50.173Z,101834.56
2019-02-17T11:55:19.618Z,101839.28
2019-02-17T11:57:49.064Z,101845.58
2019-02-17T12:00:21.770Z,101840.59
2019-02-17T12:02:51.297Z,101828.03
2019-02-17T12:05:20.814Z,101829.78
2019-02-17T12:07:50.267Z,101827.97
2019-02-17T12:10:19.858Z,101831.93
2019-02-17T12:12:49.303Z,101827.04
2019-02-17T12:15:18.801Z,101827.76
2019-02-17T12:17:48.263Z,101820.78
2019-02-17T12:20:38.071Z,101821.34
2019-02-17T12:23:09.153Z,101829.25
2019-02-17T12:25:40.221Z,101817.64
2019-02-17T12:28:11.371Z,101833.04
2019-02-17T12:30:42.270Z,101816.56
2019-02-17T12:33:19.115Z,101823.56
2019-02-17T12:35:42.853Z,101811.20
2019-02-17T12:38:12.282Z,101814.18
2019-02-17T12:40:41.692Z,101813.50
2019-02-17T12:43:11.120Z,101801.04
2019-02-17T12:45:40.552Z,101800.69
2019-02-17T12:48:09.963Z,101793.05
2019-02-17T12:50:39.395Z,101794.80
2019-02-17T12:53:08.816Z,101795.97
2019-02-17T12:55:38.234Z,101785.20
2019-02-17T12:58:07.951Z,101786.53
2019-02-17T13:00:37.376Z,101785.35
2019-02-17T13:03:06.853Z,101779.67
2019-02-17T13:05:36.301Z,101780.05
2019-02-17T13:08:05.724Z,101772.59
2019-02-17T13:10:35.120Z,101772.71
2019-02-17T13:13:04.864Z,101770.02
2019-02-17T13:15:34.346Z,101769.52
2019-02-17T13:18:03.781Z,101768.22
2019-02-17T13:20:33.195Z,101776.89
2019-02-17T13:23:02.596Z,101770.58
2019-02-17T13:25:32.030Z,101772.77
2019-02-17T13:28:01.445Z,101766.09
2019-02-17T13:30:31.230Z,101762.31
2019-02-17T13:33:00.634Z,101760.39
2019-02-17T13:35:30.364Z,101755.28
2019-02-17T13:37:59.766Z,101761.38
2019-02-17T13:40:29.418Z,101753.09
2019-02-17T13:42:59.045Z,101760.71
2019-02-17T13:45:28.583Z,101751.67
2019-02-17T13:47:58.014Z,101746.80
2019-02-17T13:50:27.437Z,101743.66
2019-02-17T13:52:56.917Z,101744.66
2019-02-17T13:55:26.353Z,101736.48
2019-02-17T13:57:55.772Z,101740.50
2019-02-17T14:00:25.208Z,101737.27
2019-02-17T14:02:54.632Z,101741.27
2019-02-17T14:05:24.038Z,101739.77
2019-02-17T14:07:53.662Z,101739.23
2019-02-17T14:10:23.069Z,101744.61
2019-02-17T14:12:52.476Z,101737.42
2019-02-17T14:15:22.066Z,101742.53
2019-02-17T14:17:51.471Z,101738.31
2019-02-17T14:20:20.968Z,101742.78
2019-02-17T14:22:50.464Z,101730.46
2019-02-17T14:25:19.894Z,101733.31
2019-02-17T14:27:49.581Z,101725.20
2019-02-17T14:30:20.242Z,101728.66
2019-02-17T14:32:49.946Z,101735.89
2019-02-17T14:35:19.639Z,101734.47
2019-02-17T14:37:49.327Z,101735.06
2019-02-17T14:40:18.743Z,101731.63
2019-02-17T14:42:48.177Z,101733.54
2019-02-17T14:45:18.025Z,101729.96
2019-02-17T14:47:47.491Z,101724.21
2019-02-17T14:50:16.974Z,101729.09
2019-02-17T14:52:46.397Z,101725.31
2019-02-17T14:55:15.873Z,101727.35
2019-02-17T14:57:45.320Z,101724.78
2019-02-17T15:00:16.314Z,101721.27
2019-02-17T15:02:45.724Z,101724.61
2019-02-17T15:05:15.208Z,101725.18
2019-02-17T15:07:44.624Z,101725.03
2019-02-17T15:10:15.071Z,101734.22
2019-02-17T15:12:44.762Z,101730.66
2019-02-17T15:15:16.554Z,101733.67
2019-02-17T15:17:45.950Z,101723.22
2019-02-17T15:20:24.540Z,101721.95
2019-02-17T15:22:53.937Z,101728.98
2019-02-17T15:25:23.363Z,101733.18
2019-02-17T15:27:52.771Z,101736.73
2019-02-17T15:30:22.172Z,101745.75
2019-02-17T15:32:51.606Z,101740.59
2019-02-17T15:35:22.390Z,101748.73
2019-02-17T15:37:52.009Z,101750.13
2019-02-17T15:40:23.471Z,101744.42
2019-02-17T15:42:52.552Z,101746.01
2019-02-17T15:45:21.970Z,101750.01
2019-02-17T15:47:51.369Z,101756.14
2019-02-17T15:50:20.803Z,101758.13
2019-02-17T15:52:50.232Z,101765.09
2019-02-17T15:55:19.677Z,101764.11
2019-02-17T15:57:49.581Z,101763.41
2019-02-17T16:00:20.385Z,101764.36
2019-02-17T16:02:49.818Z,101770.77
2019-02-17T16:05:19.287Z,101763.42
2019-02-17T16:07:48.726Z,101761.06
2019-02-17T16:10:18.887Z,101759.75
2019-02-17T16:12:48.309Z,101764.99
2019-02-17T16:15:26.242Z,101766.47
2019-02-17T16:17:55.663Z,101765.56
2019-02-17T16:20:25.097Z,101769.31
2019-02-17T16:22:54.786Z,101768.80
2019-02-17T16:25:24.218Z,101769.78
2019-02-17T16:27:53.626Z,101766.08
2019-02-17T16:30:24.075Z,101774.38
2019-02-17T16:32:53.494Z,101774.92
2019-02-17T16:35:22.892Z,101774.80
2019-02-17T16:37:52.329Z,101773.69
2019-02-17T16:40:21.751Z,101771.16
2019-02-17T16:42:51.265Z,101772.13
2019-02-17T16:45:21.063Z,101770.17
2019-02-17T16:47:50.477Z,101780.55
2019-02-17T16:50:26.740Z,101770.77
2019-02-17T16:52:56.146Z,101769.12
2019-02-17T16:55:25.547Z,101770.07
2019-02-17T16:57:55.051Z,101773.02
2019-02-17T17:00:25.544Z,101771.58
2019-02-17T17:02:56.383Z,101775.25
2019-02-17T17:05:26.332Z,101774.30
2019-02-17T17:07:55.781Z,101775.33
2019-02-17T17:10:25.629Z,101778.98
2019-02-17T17:12:55.034Z,101782.45
2019-02-17T17:15:24.734Z,101780.87
2019-02-17T17:17:54.142Z,101788.17
2019-02-17T17:20:23.954Z,101792.55
2019-02-17T17:22:53.370Z,101793.63
2019-02-17T17:25:22.930Z,101790.89
2019-02-17T17:27:52.353Z,101790.04
2019-02-17T17:30:21.828Z,101795.86
2019-02-17T17:32:51.243Z,101793.60
2019-02-17T17:35:20.643Z,101803.32
2019-02-17T17:37:50.093Z,101805.03
2019-02-17T17:40:19.789Z,101807.88
2019-02-17T17:42:49.269Z,101801.42
2019-02-17T17:45:22.609Z,101798.16
2019-02-17T17:47:52.168Z,101807.08
2019-02-17T17:50:21.848Z,101801.84
2019-02-17T17:52:51.619Z,101803.60
2019-02-17T17:55:21.039Z,101809.30
2019-02-17T17:57:50.465Z,101801.16
2019-02-17T18:00:21.586Z,101810.22
2019-02-17T18:02:51.030Z,101805.64
2019-02-17T18:05:20.453Z,101806.51
2019-02-17T18:07:49.865Z,101804.80
2019-02-17T18:10:19.379Z,101809.20
2019-02-17T18:12:48.767Z,101805.64
2019-02-17T18:15:20.708Z,101808.91
2019-02-17T18:17:54.270Z,101810.49
2019-02-17T18:20:21.618Z,101809.80
2019-02-17T18:22:51.048Z,101814.61
2019-02-17T18:25:20.453Z,101814.66
2019-02-17T18:27:49.923Z,101817.67
2019-02-17T18:30:20.753Z,101824.45
2019-02-17T18:32:50.294Z,101820.88
2019-02-17T18:35:20.746Z,101814.16
2019-02-17T18:37:50.358Z,101825.86
2019-02-17T18:40:20.731Z,101827.69
2019-02-17T18:42:50.155Z,101832.43
2019-02-17T18:45:19.638Z,101831.03
2019-02-17T18:47:49.062Z,101828.48
2019-02-17T18:50:19.522Z,101830.41
2019-02-17T18:52:49.290Z,101835.59
2019-02-17T18:55:18.803Z,101829.91
2019-02-17T18:57:50.826Z,101833.52
2019-02-17T19:00:25.376Z,101836.36
2019-02-17T19:02:54.819Z,101840.05
2019-02-17T19:05:31.530Z,101836.55
2019-02-17T19:07:55.686Z,101840.84
2019-02-17T19:10:25.119Z,101838.62
2019-02-17T19:12:54.533Z,101836.81
2019-02-17T19:15:24.093Z,101834.65
2019-02-17T19:17:53.526Z,101840.20
2019-02-17T19:20:34.803Z,101835.69
2019-02-17T19:23:04.291Z,101834.91
2019-02-17T19:25:33.725Z,101835.86
2019-02-17T19:28:03.854Z,101838.81
2019-02-17T19:30:33.331Z,101843.81
2019-02-17T19:33:02.808Z,101851.70
2019-02-17T19:35:41.479Z,101846.47
2019-02-17T19:38:03.638Z,101845.76
2019-02-17T19:40:33.066Z,101841.77
2019-02-17T19:43:03.554Z,101845.92
2019-02-17T19:45:33.092Z,101853.63
2019-02-17T19:48:02.516Z,101853.14
2019-02-17T19:50:32.187Z,101858.91
2019-02-17T19:53:01.638Z,101853.84
2019-02-17T19:55:31.040Z,101853.33
2019-02-17T19:58:00.490Z,101859.67
2019-02-17T20:00:30.192Z,101862.60
2019-02-17T20:03:03.775Z,101858.34
2019-02-17T20:05:52.748Z,101863.73
2019-02-17T20:08:22.161Z,101859.88
2019-02-17T20:10:51.607Z,101866.47
2019-02-17T20:13:21.093Z,101866.91
2019-02-17T20:15:50.681Z,101862.28
2019-02-17T20:18:20.161Z,101862.02
2019-02-17T20:20:49.566Z,101866.16
2019-02-17T20:23:19.351Z,101863.05
2019-02-17T20:25:48.765Z,101866.08
2019-02-17T20:28:18.187Z,101862.60
2019-02-17T20:30:47.688Z,101861.58
2019-02-17T20:33:17.099Z,101867.45
2019-02-17T20:35:46.559Z,101864.09
2019-02-17T20:38:16.227Z,101859.30
2019-02-17T20:40:45.669Z,101858.61
2019-02-17T20:43:16.784Z,101859.57
2019-02-17T20:45:46.507Z,101861.84
2019-02-17T20:48:15.939Z,101858.96
2019-02-17T20:50:45.356Z,101863.81
2019-02-17T20:53:14.781Z,101863.45
2019-02-17T20:55:44.197Z,101860.59
2019-02-17T20:58:13.618Z,101873.20
2019-02-17T21:00:43.400Z,101875.37
2019-02-17T21:03:12.831Z,101871.84
2019-02-17T21:05:42.367Z,101872.44
2019-02-17T21:08:11.858Z,101875.95
2019-02-17T21:10:41.341Z,101877.48
2019-02-17T21:13:11.075Z,101873.10
2019-02-17T21:15:40.497Z,101867.35
2019-02-17T21:18:09.920Z,101872.45
2019-02-17T21:20:39.679Z,101865.21
2019-02-17T21:23:09.080Z,101861.53
2019-02-17T21:25:38.516Z,101853.86
2019-02-17T21:28:07.917Z,101854.81
2019-02-17T21:30:37.337Z,101857.74
2019-02-17T21:33:07.009Z,101846.98
2019-02-17T21:35:36.450Z,101854.27
2019-02-17T21:38:05.876Z,101850.08
2019-02-17T21:40:35.375Z,101856.90
2019-02-17T21:43:04.878Z,101853.83
2019-02-17T21:45:34.295Z,101858.59
2019-02-17T21:48:03.755Z,101851.48
2019-02-17T21:50:33.179Z,101854.03
2019-02-17T21:53:02.588Z,101856.39
2019-02-17T21:55:32.291Z,101849.12
2019-02-17T21:58:01.714Z,101849.39
2019-02-17T22:00:31.134Z,101856.37
2019-02-17T22:03:00.547Z,101857.03
2019-02-17T22:05:29.993Z,101855.12
2019-02-17T22:07:59.416Z,101858.34
2019-02-17T22:10:28.816Z,101855.83
2019-02-17T22:12:58.250Z,101858.98
2019-02-17T22:15:27.662Z,101858.33
2019-02-17T22:17:57.064Z,101855.04
2019-02-17T22:20:26.462Z,101855.83
2019-02-17T22:22:55.887Z,101852.91
2019-02-17T22:25:25.614Z,101854.34
2019-02-17T22:27:55.452Z,101848.73
2019-02-17T22:30:25.193Z,101846.03
2019-02-17T22:32:54.577Z,101843.95
2019-02-17T22:35:24.253Z,101840.31
2019-02-17T22:37:53.974Z,101840.45
2019-02-17T22:40:23.377Z,101832.73
2019-02-17T22:42:52.809Z,101832.58
2019-02-17T22:45:22.204Z,101823.94
2019-02-17T22:47:51.613Z,101823.64
2019-02-17T22:50:21.296Z,101829.02
2019-02-17T22:52:50.699Z,101826.90
2019-02-17T22:55:20.125Z,101827.43
2019-02-17T22:57:49.560Z,101827.92
2019-02-17T23:00:33.482Z,101827.52
2019-02-17T23:03:02.913Z,101826.47
2019-02-17T23:05:32.324Z,101830.14
2019-02-17T23:08:01.757Z,101838.27
2019-02-17T23:10:31.149Z,101838.77
2019-02-17T23:13:01.049Z,101842.31
2019-02-17T23:15:30.452Z,101835.55
2019-02-17T23:18:00.136Z,101849.47
2019-02-17T23:20:29.574Z,101845.74
2019-02-17T23:22:58.977Z,101844.56
2019-02-17T23:25:28.677Z,101837.63
2019-02-17T23:27:58.079Z,101840.91
2019-02-17T23:30:27.470Z,101840.33
2019-02-17T23:32:56.884Z,101836.84
2019-02-17T23:35:26.561Z,101835.67
2019-02-17T23:37:56.253Z,101840.69
2019-02-17T23:40:25.797Z,101842.78
2019-02-17T23:42:55.213Z,101840.63
2019-02-17T23:45:24.659Z,101842.41
2019-02-17T23:47:54.151Z,101843.17
2019-02-17T23:50:23.650Z,101843.52
2019-02-17T23:52:54.653Z,101851.73
2019-02-17T23:55:24.291Z,101848.80
2019-02-17T23:57:53.696Z,101846.53
